sensor_id;sensor_type;location;lat;lon;timestamp;pressure;altitude;pressure_sealevel;temperature;humidity
25722;BME280;13578;53.450;15.496;2023-04-07T00:02:04;100183.38;;;3.07;100.00
25722;BME280;13578;53.450;15.496;2023-04-07T00:05:05;100175.88;;;3.12;100.00
25722;BME280;13578;53.450;15.496;2023-04-07T00:08:05;100179.22;;;3.17;100.00
25722;BME280;13578;53.450;15.496;2023-04-07T00:11:06;100177.16;;;3.05;100.00
25722;BME280;13578;53.450;15.496;2023-04-07T00:14:08;100164.97;;;2.96;100.00
25722;BME280;13578;53.450;15.496;2023-04-07T00:17:08;100163.44;;;2.90;100.00
25722;BME280;13578;53.450;15.496;2023-04-07T00:20:09;100161.06;;;2.84;100.00
25722;BME280;13578;53.450;15.496;2023-04-07T00:23:10;100162.09;;;2.81;100.00
25722;BME280;13578;53.450;15.496;2023-04-07T00:26:11;100169.19;;;2.84;100.00
25722;BME280;13578;53.450;15.496;2023-04-07T00:29:11;100154.03;;;2.80;100.00
25722;BME280;13578;53.450;15.496;2023-04-07T00:32:12;100165.53;;;2.67;100.00
25722;BME280;13578;53.450;15.496;2023-04-07T00:35:12;100152.69;;;2.71;100.00
25722;BME280;13578;53.450;15.496;2023-04-07T00:38:13;100159.47;;;2.80;100.00
25722;BME280;13578;53.450;15.496;2023-04-07T00:41:14;100151.50;;;2.59;100.00
25722;BME280;13578;53.450;15.496;2023-04-07T00:44:15;100162.41;;;2.58;100.00
25722;BME280;13578;53.450;15.496;2023-04-07T00:47:15;100151.41;;;2.61;100.00
25722;BME280;13578;53.450;15.496;2023-04-07T00:50:17;100153.78;;;2.49;100.00
25722;BME280;13578;53.450;15.496;2023-04-07T00:53:18;100147.97;;;2.40;100.00
25722;BME280;13578;53.450;15.496;2023-04-07T00:56:19;100151.13;;;2.30;100.00
25722;BME280;13578;53.450;15.496;2023-04-07T00:59:20;100135.13;;;2.26;100.00
25722;BME280;13578;53.450;15.496;2023-04-07T01:02:40;100144.72;;;2.14;100.00
25722;BME280;13578;53.450;15.496;2023-04-07T01:08:53;100132.47;;;1.87;100.00
25722;BME280;13578;53.450;15.496;2023-04-07T01:12:11;100141.63;;;1.85;100.00
25722;BME280;13578;53.450;15.496;2023-04-07T01:15:17;100137.88;;;1.87;100.00
25722;BME280;13578;53.450;15.496;2023-04-07T01:18:23;100137.38;;;1.98;100.00
25722;BME280;13578;53.450;15.496;2023-04-07T01:21:26;100136.56;;;1.96;100.00
25722;BME280;13578;53.450;15.496;2023-04-07T01:31:25;100115.97;;;1.74;100.00
25722;BME280;13578;53.450;15.496;2023-04-07T01:34:29;100128.16;;;1.83;100.00
25722;BME280;13578;53.450;15.496;2023-04-07T01:37:31;100122.13;;;1.78;100.00
25722;BME280;13578;53.450;15.496;2023-04-07T01:40:33;100110.38;;;1.78;100.00
25722;BME280;13578;53.450;15.496;2023-04-07T01:43:36;100116.75;;;1.77;100.00
25722;BME280;13578;53.450;15.496;2023-04-07T01:46:38;100117.78;;;1.74;100.00
25722;BME280;13578;53.450;15.496;2023-04-07T01:49:39;100108.50;;;1.80;100.00
25722;BME280;13578;53.450;15.496;2023-04-07T01:52:41;100114.03;;;1.77;100.00
25722;BME280;13578;53.450;15.496;2023-04-07T01:55:42;100114.84;;;1.79;100.00
25722;BME280;13578;53.450;15.496;2023-04-07T01:58:43;100113.81;;;1.81;100.00
25722;BME280;13578;53.450;15.496;2023-04-07T02:01:44;100121.00;;;1.82;100.00
25722;BME280;13578;53.450;15.496;2023-04-07T02:04:50;100112.75;;;1.85;100.00
25722;BME280;13578;53.450;15.496;2023-04-07T02:07:58;100110.25;;;1.81;100.00
25722;BME280;13578;53.450;15.496;2023-04-07T02:11:01;100111.41;;;1.75;100.00
25722;BME280;13578;53.450;15.496;2023-04-07T02:14:03;100103.22;;;1.77;100.00
25722;BME280;13578;53.450;15.496;2023-04-07T02:17:06;100096.22;;;1.72;100.00
25722;BME280;13578;53.450;15.496;2023-04-07T02:20:07;100096.34;;;1.69;100.00
25722;BME280;13578;53.450;15.496;2023-04-07T02:23:09;100103.91;;;1.82;100.00
25722;BME280;13578;53.450;15.496;2023-04-07T02:26:10;100097.03;;;1.74;100.00
25722;BME280;13578;53.450;15.496;2023-04-07T02:29:11;100115.16;;;1.72;100.00
25722;BME280;13578;53.450;15.496;2023-04-07T02:32:11;100100.91;;;1.69;100.00
25722;BME280;13578;53.450;15.496;2023-04-07T02:35:13;100097.88;;;1.75;100.00
25722;BME280;13578;53.450;15.496;2023-04-07T02:38:14;100094.16;;;1.78;100.00
25722;BME280;13578;53.450;15.496;2023-04-07T02:41:14;100108.94;;;1.70;100.00
25722;BME280;13578;53.450;15.496;2023-04-07T02:44:15;100094.16;;;1.58;100.00
25722;BME280;13578;53.450;15.496;2023-04-07T02:47:15;100100.16;;;1.65;100.00
25722;BME280;13578;53.450;15.496;2023-04-07T02:50:16;100096.66;;;1.63;100.00
25722;BME280;13578;53.450;15.496;2023-04-07T02:53:17;100091.47;;;1.58;100.00
25722;BME280;13578;53.450;15.496;2023-04-07T02:56:17;100097.56;;;1.64;100.00
25722;BME280;13578;53.450;15.496;2023-04-07T02:59:18;100096.66;;;1.63;100.00
25722;BME280;13578;53.450;15.496;2023-04-07T03:02:18;100095.16;;;1.57;100.00
25722;BME280;13578;53.450;15.496;2023-04-07T03:05:19;100102.66;;;1.51;100.00
25722;BME280;13578;53.450;15.496;2023-04-07T03:08:20;100101.28;;;1.61;100.00
25722;BME280;13578;53.450;15.496;2023-04-07T03:11:21;100094.63;;;1.49;100.00
25722;BME280;13578;53.450;15.496;2023-04-07T03:14:21;100091.72;;;1.54;100.00
25722;BME280;13578;53.450;15.496;2023-04-07T03:17:22;100093.31;;;1.58;100.00
25722;BME280;13578;53.450;15.496;2023-04-07T03:20:22;100085.84;;;1.63;100.00
25722;BME280;13578;53.450;15.496;2023-04-07T03:23:23;100085.50;;;1.52;100.00
25722;BME280;13578;53.450;15.496;2023-04-07T03:26:24;100080.72;;;1.57;100.00
25722;BME280;13578;53.450;15.496;2023-04-07T03:29:24;100078.69;;;1.43;100.00
25722;BME280;13578;53.450;15.496;2023-04-07T03:32:25;100083.88;;;1.48;100.00
25722;BME280;13578;53.450;15.496;2023-04-07T03:35:25;100079.34;;;1.48;100.00
25722;BME280;13578;53.450;15.496;2023-04-07T03:38:26;100084.69;;;1.50;100.00
25722;BME280;13578;53.450;15.496;2023-04-07T03:41:27;100070.34;;;1.48;100.00
25722;BME280;13578;53.450;15.496;2023-04-07T03:44:27;100081.25;;;1.46;100.00
25722;BME280;13578;53.450;15.496;2023-04-07T03:47:28;100068.75;;;1.43;100.00
25722;BME280;13578;53.450;15.496;2023-04-07T03:50:29;100077.81;;;1.42;100.00
25722;BME280;13578;53.450;15.496;2023-04-07T03:53:29;100075.91;;;1.45;100.00
25722;BME280;13578;53.450;15.496;2023-04-07T03:56:30;100068.75;;;1.43;100.00
25722;BME280;13578;53.450;15.496;2023-04-07T03:59:31;100061.00;;;1.36;100.00
25722;BME280;13578;53.450;15.496;2023-04-07T04:02:32;100058.06;;;1.40;100.00
25722;BME280;13578;53.450;15.496;2023-04-07T04:05:32;100059.81;;;1.41;100.00
25722;BME280;13578;53.450;15.496;2023-04-07T04:08:33;100065.75;;;1.50;100.00
25722;BME280;13578;53.450;15.496;2023-04-07T04:11:34;100060.72;;;1.42;100.00
25722;BME280;13578;53.450;15.496;2023-04-07T04:14:34;100061.97;;;1.35;100.00
25722;BME280;13578;53.450;15.496;2023-04-07T04:17:35;100067.63;;;1.48;100.00
25722;BME280;13578;53.450;15.496;2023-04-07T04:20:36;100054.41;;;1.41;100.00
25722;BME280;13578;53.450;15.496;2023-04-07T04:23:37;100053.31;;;1.46;100.00
25722;BME280;13578;53.450;15.496;2023-04-07T04:26:37;100053.69;;;1.38;100.00
25722;BME280;13578;53.450;15.496;2023-04-07T04:29:38;100048.66;;;1.30;100.00
25722;BME280;13578;53.450;15.496;2023-04-07T04:32:38;100051.88;;;1.38;100.00
25722;BME280;13578;53.450;15.496;2023-04-07T04:35:40;100043.88;;;1.35;100.00
25722;BME280;13578;53.450;15.496;2023-04-07T04:38:40;100043.22;;;1.49;100.00
25722;BME280;13578;53.450;15.496;2023-04-07T04:41:41;100054.84;;;1.51;100.00
25722;BME280;13578;53.450;15.496;2023-04-07T04:44:41;100040.66;;;1.46;100.00
25722;BME280;13578;53.450;15.496;2023-04-07T04:47:42;100044.69;;;1.56;100.00
25722;BME280;13578;53.450;15.496;2023-04-07T04:50:43;100037.31;;;1.41;100.00
25722;BME280;13578;53.450;15.496;2023-04-07T04:53:43;100043.06;;;1.33;100.00
25722;BME280;13578;53.450;15.496;2023-04-07T04:56:44;100050.91;;;1.39;100.00
25722;BME280;13578;53.450;15.496;2023-04-07T04:59:45;100040.53;;;1.30;100.00
25722;BME280;13578;53.450;15.496;2023-04-07T05:02:45;100034.03;;;1.34;100.00
25722;BME280;13578;53.450;15.496;2023-04-07T05:05:47;100038.66;;;1.32;100.00
25722;BME280;13578;53.450;15.496;2023-04-07T05:08:48;100035.47;;;1.41;100.00
25722;BME280;13578;53.450;15.496;2023-04-07T05:11:48;100031.75;;;1.44;100.00
25722;BME280;13578;53.450;15.496;2023-04-07T05:14:49;100034.53;;;1.42;100.00
25722;BME280;13578;53.450;15.496;2023-04-07T05:17:49;100042.13;;;1.53;100.00
25722;BME280;13578;53.450;15.496;2023-04-07T05:20:50;100033.38;;;1.48;100.00
25722;BME280;13578;53.450;15.496;2023-04-07T05:23:51;100031.47;;;1.50;100.00
25722;BME280;13578;53.450;15.496;2023-04-07T05:26:52;100029.41;;;1.55;100.00
25722;BME280;13578;53.450;15.496;2023-04-07T05:29:52;100025.97;;;1.52;100.00
25722;BME280;13578;53.450;15.496;2023-04-07T05:32:53;100025.66;;;1.58;100.00
25722;BME280;13578;53.450;15.496;2023-04-07T05:35:54;100018.50;;;1.57;100.00
25722;BME280;13578;53.450;15.496;2023-04-07T05:38:55;100030.94;;;1.61;100.00
25722;BME280;13578;53.450;15.496;2023-04-07T05:41:55;100032.06;;;1.74;100.00
25722;BME280;13578;53.450;15.496;2023-04-07T05:44:56;100026.31;;;1.63;100.00
25722;BME280;13578;53.450;15.496;2023-04-07T05:47:57;100028.41;;;1.76;100.00
25722;BME280;13578;53.450;15.496;2023-04-07T05:50:58;100036.72;;;1.90;100.00
25722;BME280;13578;53.450;15.496;2023-04-07T05:54:01;100031.28;;;1.72;100.00
25722;BME280;13578;53.450;15.496;2023-04-07T05:57:06;100028.44;;;1.93;100.00
25722;BME280;13578;53.450;15.496;2023-04-07T06:00:07;100022.56;;;2.02;100.00
25722;BME280;13578;53.450;15.496;2023-04-07T06:03:08;100023.09;;;1.92;100.00
25722;BME280;13578;53.450;15.496;2023-04-07T06:06:09;100021.25;;;1.92;100.00
25722;BME280;13578;53.450;15.496;2023-04-07T06:09:10;100018.91;;;2.03;100.00
25722;BME280;13578;53.450;15.496;2023-04-07T06:12:10;100016.97;;;1.88;100.00
25722;BME280;13578;53.450;15.496;2023-04-07T06:15:11;100027.66;;;2.09;100.00
25722;BME280;13578;53.450;15.496;2023-04-07T06:18:12;100031.16;;;2.11;100.00
25722;BME280;13578;53.450;15.496;2023-04-07T06:21:12;100027.84;;;2.05;100.00
25722;BME280;13578;53.450;15.496;2023-04-07T06:24:13;100025.19;;;2.04;100.00
25722;BME280;13578;53.450;15.496;2023-04-07T06:27:14;100022.09;;;2.12;100.00
25722;BME280;13578;53.450;15.496;2023-04-07T06:30:15;100022.25;;;2.09;100.00
25722;BME280;13578;53.450;15.496;2023-04-07T06:33:16;100028.00;;;2.20;100.00
25722;BME280;13578;53.450;15.496;2023-04-07T06:36:16;100021.44;;;2.24;100.00
25722;BME280;13578;53.450;15.496;2023-04-07T06:39:17;100027.66;;;2.26;100.00
25722;BME280;13578;53.450;15.496;2023-04-07T06:42:18;100023.22;;;2.25;100.00
25722;BME280;13578;53.450;15.496;2023-04-07T06:45:18;100027.09;;;2.37;100.00
25722;BME280;13578;53.450;15.496;2023-04-07T06:48:19;100034.09;;;2.41;100.00
25722;BME280;13578;53.450;15.496;2023-04-07T06:51:20;100019.94;;;2.36;100.00
25722;BME280;13578;53.450;15.496;2023-04-07T06:54:21;100021.50;;;2.40;100.00
25722;BME280;13578;53.450;15.496;2023-04-07T06:57:21;100026.22;;;2.36;100.00
25722;BME280;13578;53.450;15.496;2023-04-07T07:00:22;100038.16;;;2.50;100.00
25722;BME280;13578;53.450;15.496;2023-04-07T07:03:22;100028.28;;;2.49;100.00
25722;BME280;13578;53.450;15.496;2023-04-07T07:06:23;100026.44;;;2.49;100.00
25722;BME280;13578;53.450;15.496;2023-04-07T07:09:24;100039.84;;;2.52;100.00
25722;BME280;13578;53.450;15.496;2023-04-07T07:12:25;100025.59;;;2.49;100.00
25722;BME280;13578;53.450;15.496;2023-04-07T07:15:26;100025.19;;;2.39;100.00
25722;BME280;13578;53.450;15.496;2023-04-07T07:18:26;100021.03;;;2.49;100.00
25722;BME280;13578;53.450;15.496;2023-04-07T07:21:27;100034.16;;;2.57;100.00
25722;BME280;13578;53.450;15.496;2023-04-07T07:24:28;100020.09;;;2.50;100.00
25722;BME280;13578;53.450;15.496;2023-04-07T07:27:29;100027.72;;;2.60;100.00
25722;BME280;13578;53.450;15.496;2023-04-07T07:30:29;100032.91;;;2.47;100.00
25722;BME280;13578;53.450;15.496;2023-04-07T07:33:30;100036.25;;;2.52;100.00
25722;BME280;13578;53.450;15.496;2023-04-07T07:36:31;100043.56;;;2.50;100.00
25722;BME280;13578;53.450;15.496;2023-04-07T07:39:31;100035.75;;;2.61;100.00
25722;BME280;13578;53.450;15.496;2023-04-07T07:42:32;100041.91;;;2.65;100.00
25722;BME280;13578;53.450;15.496;2023-04-07T07:45:33;100037.34;;;2.65;100.00
25722;BME280;13578;53.450;15.496;2023-04-07T07:48:33;100033.06;;;2.61;100.00
25722;BME280;13578;53.450;15.496;2023-04-07T07:51:34;100035.84;;;2.60;100.00
25722;BME280;13578;53.450;15.496;2023-04-07T07:54:35;100049.78;;;2.69;100.00
25722;BME280;13578;53.450;15.496;2023-04-07T07:57:35;100048.84;;;2.70;100.00
25722;BME280;13578;53.450;15.496;2023-04-07T08:00:36;100038.94;;;2.69;100.00
25722;BME280;13578;53.450;15.496;2023-04-07T08:03:37;100042.59;;;2.68;100.00
25722;BME280;13578;53.450;15.496;2023-04-07T08:06:37;100039.03;;;2.68;100.00
25722;BME280;13578;53.450;15.496;2023-04-07T08:09:38;100048.03;;;2.68;100.00
25722;BME280;13578;53.450;15.496;2023-04-07T08:12:38;100051.69;;;2.67;100.00
25722;BME280;13578;53.450;15.496;2023-04-07T08:15:39;100054.59;;;2.64;100.00
25722;BME280;13578;53.450;15.496;2023-04-07T08:18:40;100051.69;;;2.67;100.00
25722;BME280;13578;53.450;15.496;2023-04-07T08:21:40;100047.41;;;2.63;100.00
25722;BME280;13578;53.450;15.496;2023-04-07T08:24:41;100062.13;;;2.75;100.00
25722;BME280;13578;53.450;15.496;2023-04-07T08:27:42;100055.22;;;2.69;100.00
25722;BME280;13578;53.450;15.496;2023-04-07T08:30:42;100046.03;;;2.72;100.00
25722;BME280;13578;53.450;15.496;2023-04-07T08:33:43;100053.31;;;2.72;100.00
25722;BME280;13578;53.450;15.496;2023-04-07T08:36:44;100037.66;;;2.77;100.00
25722;BME280;13578;53.450;15.496;2023-04-07T08:39:44;100041.16;;;2.79;100.00
25722;BME280;13578;53.450;15.496;2023-04-07T08:42:48;100038.88;;;2.87;100.00
25722;BME280;13578;53.450;15.496;2023-04-07T08:45:49;100037.22;;;2.84;100.00
25722;BME280;13578;53.450;15.496;2023-04-07T08:48:51;100050.84;;;3.00;100.00
25722;BME280;13578;53.450;15.496;2023-04-07T08:51:53;100046.19;;;3.02;100.00
25722;BME280;13578;53.450;15.496;2023-04-07T08:54:54;100042.38;;;3.07;100.00
25722;BME280;13578;53.450;15.496;2023-04-07T08:57:56;100042.88;;;3.13;100.00
25722;BME280;13578;53.450;15.496;2023-04-07T09:00:57;100043.22;;;3.07;100.00
25722;BME280;13578;53.450;15.496;2023-04-07T09:03:59;100044.75;;;3.29;100.00
25722;BME280;13578;53.450;15.496;2023-04-07T09:07:02;100048.72;;;3.39;100.00
25722;BME280;13578;53.450;15.496;2023-04-07T09:10:03;100043.25;;;3.23;100.00
25722;BME280;13578;53.450;15.496;2023-04-07T09:13:03;100044.38;;;3.19;100.00
25722;BME280;13578;53.450;15.496;2023-04-07T09:16:04;100049.91;;;3.33;100.00
25722;BME280;13578;53.450;15.496;2023-04-07T09:19:06;100052.38;;;3.38;100.00
25722;BME280;13578;53.450;15.496;2023-04-07T09:22:07;100043.72;;;3.47;100.00
25722;BME280;13578;53.450;15.496;2023-04-07T09:25:20;100058.34;;;3.45;100.00
25722;BME280;13578;53.450;15.496;2023-04-07T09:28:37;100054.03;;;3.41;100.00
25722;BME280;13578;53.450;15.496;2023-04-07T09:31:44;100054.50;;;3.49;100.00
25722;BME280;13578;53.450;15.496;2023-04-07T09:34:57;100054.84;;;3.43;100.00
25722;BME280;13578;53.450;15.496;2023-04-07T09:38:08;100055.09;;;3.38;100.00
25722;BME280;13578;53.450;15.496;2023-04-07T09:41:13;100053.94;;;3.42;100.00
25722;BME280;13578;53.450;15.496;2023-04-07T09:44:15;100053.88;;;3.44;100.00
25722;BME280;13578;53.450;15.496;2023-04-07T09:47:16;100050.22;;;3.45;100.00
25722;BME280;13578;53.450;15.496;2023-04-07T09:50:30;100039.00;;;3.51;100.00
25722;BME280;13578;53.450;15.496;2023-04-07T09:54:01;100040.84;;;3.67;100.00
25722;BME280;13578;53.450;15.496;2023-04-07T09:57:02;100040.66;;;3.54;100.00
25722;BME280;13578;53.450;15.496;2023-04-07T10:00:04;100047.59;;;3.59;100.00
25722;BME280;13578;53.450;15.496;2023-04-07T10:03:06;100034.00;;;3.75;100.00
25722;BME280;13578;53.450;15.496;2023-04-07T10:06:07;100036.97;;;3.71;100.00
25722;BME280;13578;53.450;15.496;2023-04-07T10:09:08;100057.00;;;3.84;100.00
25722;BME280;13578;53.450;15.496;2023-04-07T10:12:09;100040.91;;;3.81;100.00
25722;BME280;13578;53.450;15.496;2023-04-07T10:15:14;100039.91;;;3.82;100.00
25722;BME280;13578;53.450;15.496;2023-04-07T10:18:16;100049.56;;;3.88;100.00
25722;BME280;13578;53.450;15.496;2023-04-07T10:21:17;100052.19;;;3.89;100.00
25722;BME280;13578;53.450;15.496;2023-04-07T10:27:46;100046.59;;;3.92;100.00
25722;BME280;13578;53.450;15.496;2023-04-07T10:30:51;100038.38;;;3.78;100.00
25722;BME280;13578;53.450;15.496;2023-04-07T10:33:53;100034.50;;;3.82;100.00
25722;BME280;13578;53.450;15.496;2023-04-07T10:37:13;100034.00;;;3.75;100.00
25722;BME280;13578;53.450;15.496;2023-04-07T10:43:44;100031.94;;;3.95;100.00
25722;BME280;13578;53.450;15.496;2023-04-07T10:50:19;100038.19;;;3.81;100.00
25722;BME280;13578;53.450;15.496;2023-04-07T10:53:20;100035.72;;;3.92;100.00
25722;BME280;13578;53.450;15.496;2023-04-07T10:56:20;100034.59;;;3.96;100.00
25722;BME280;13578;53.450;15.496;2023-04-07T10:59:21;100040.97;;;3.95;100.00
25722;BME280;13578;53.450;15.496;2023-04-07T11:05:27;100033.59;;;3.97;100.00
25722;BME280;13578;53.450;15.496;2023-04-07T11:08:41;100043.38;;;4.16;100.00
25722;BME280;13578;53.450;15.496;2023-04-07T11:11:42;100030.25;;;4.08;100.00
25722;BME280;13578;53.450;15.496;2023-04-07T11:14:43;100043.66;;;4.11;100.00
25722;BME280;13578;53.450;15.496;2023-04-07T11:17:43;100050.94;;;4.11;100.00
25722;BME280;13578;53.450;15.496;2023-04-07T11:23:46;100034.28;;;4.17;100.00
25722;BME280;13578;53.450;15.496;2023-04-07T11:26:46;100042.06;;;4.23;100.00
25722;BME280;13578;53.450;15.496;2023-04-07T11:29:47;100038.91;;;4.15;100.00
25722;BME280;13578;53.450;15.496;2023-04-07T11:32:48;100035.28;;;4.31;100.00
25722;BME280;13578;53.450;15.496;2023-04-07T11:35:58;100036.34;;;4.28;100.00
25722;BME280;13578;53.450;15.496;2023-04-07T11:38:59;100029.59;;;4.19;100.00
25722;BME280;13578;53.450;15.496;2023-04-07T11:42:01;100034.34;;;4.16;100.00
25722;BME280;13578;53.450;15.496;2023-04-07T11:45:02;100037.41;;;4.25;100.00
25722;BME280;13578;53.450;15.496;2023-04-07T11:48:03;100017.97;;;4.17;100.00
25722;BME280;13578;53.450;15.496;2023-04-07T11:51:04;100035.44;;;4.27;100.00
25722;BME280;13578;53.450;15.496;2023-04-07T11:54:06;100025.47;;;4.28;100.00
25722;BME280;13578;53.450;15.496;2023-04-07T11:57:07;100031.22;;;4.38;100.00
25722;BME280;13578;53.450;15.496;2023-04-07T12:00:11;100027.53;;;4.39;100.00
25722;BME280;13578;53.450;15.496;2023-04-07T12:03:11;100024.22;;;4.34;100.00
25722;BME280;13578;53.450;15.496;2023-04-07T12:06:25;100039.47;;;4.36;100.00
25722;BME280;13578;53.450;15.496;2023-04-07T12:09:32;100039.16;;;4.41;100.00
25722;BME280;13578;53.450;15.496;2023-04-07T12:12:35;100042.38;;;4.33;100.00
25722;BME280;13578;53.450;15.496;2023-04-07T12:15:35;100039.66;;;4.33;100.00
25722;BME280;13578;53.450;15.496;2023-04-07T12:18:36;100047.69;;;4.35;100.00
25722;BME280;13578;53.450;15.496;2023-04-07T12:21:37;100034.69;;;4.25;100.00
25722;BME280;13578;53.450;15.496;2023-04-07T12:24:37;100036.66;;;4.38;100.00
25722;BME280;13578;53.450;15.496;2023-04-07T12:27:38;100035.00;;;4.35;100.00
25722;BME280;13578;53.450;15.496;2023-04-07T12:30:39;100037.06;;;4.46;100.00
25722;BME280;13578;53.450;15.496;2023-04-07T12:33:39;100032.03;;;4.54;100.00
25722;BME280;13578;53.450;15.496;2023-04-07T12:36:40;100029.53;;;4.66;100.00
25722;BME280;13578;53.450;15.496;2023-04-07T12:39:40;100027.38;;;4.71;100.00
25722;BME280;13578;53.450;15.496;2023-04-07T12:42:41;100023.91;;;4.69;100.00
25722;BME280;13578;53.450;15.496;2023-04-07T12:45:42;100030.81;;;4.89;100.00
25722;BME280;13578;53.450;15.496;2023-04-07T12:48:43;100037.72;;;4.95;100.00
25722;BME280;13578;53.450;15.496;2023-04-07T12:51:43;100041.41;;;5.08;100.00
25722;BME280;13578;53.450;15.496;2023-04-07T12:54:44;100028.59;;;4.96;100.00
25722;BME280;13578;53.450;15.496;2023-04-07T12:57:44;100036.75;;;4.96;100.00
25722;BME280;13578;53.450;15.496;2023-04-07T13:00:46;100028.97;;;4.89;100.00
25722;BME280;13578;53.450;15.496;2023-04-07T13:03:47;100038.69;;;4.93;100.00
25722;BME280;13578;53.450;15.496;2023-04-07T13:06:48;100030.91;;;4.87;100.00
25722;BME280;13578;53.450;15.496;2023-04-07T13:09:49;100026.34;;;4.88;100.00
25722;BME280;13578;53.450;15.496;2023-04-07T13:12:49;100031.47;;;4.92;100.00
25722;BME280;13578;53.450;15.496;2023-04-07T13:15:50;100029.25;;;5.14;100.00
25722;BME280;13578;53.450;15.496;2023-04-07T13:18:51;100027.22;;;5.17;100.00
25722;BME280;13578;53.450;15.496;2023-04-07T13:21:52;100021.09;;;5.14;100.00
25722;BME280;13578;53.450;15.496;2023-04-07T13:24:52;100027.59;;;5.25;100.00
25722;BME280;13578;53.450;15.496;2023-04-07T13:27:53;100022.56;;;5.19;100.00
25722;BME280;13578;53.450;15.496;2023-04-07T13:30:54;100032.25;;;5.38;100.00
25722;BME280;13578;53.450;15.496;2023-04-07T13:33:54;100017.88;;;5.36;100.00
25722;BME280;13578;53.450;15.496;2023-04-07T13:36:55;100017.06;;;5.48;100.00
25722;BME280;13578;53.450;15.496;2023-04-07T13:39:55;100021.75;;;5.32;100.00
25722;BME280;13578;53.450;15.496;2023-04-07T13:42:56;100024.75;;;5.41;100.00
25722;BME280;13578;53.450;15.496;2023-04-07T13:45:57;100017.78;;;5.37;100.00
25722;BME280;13578;53.450;15.496;2023-04-07T13:48:58;100015.50;;;5.44;100.00
25722;BME280;13578;53.450;15.496;2023-04-07T13:51:58;100007.97;;;5.62;100.00
25722;BME280;13578;53.450;15.496;2023-04-07T13:54:59;100014.00;;;5.67;100.00
25722;BME280;13578;53.450;15.496;2023-04-07T13:58:00;100016.38;;;5.59;100.00
25722;BME280;13578;53.450;15.496;2023-04-07T14:01:02;100018.56;;;5.67;100.00
25722;BME280;13578;53.450;15.496;2023-04-07T14:04:03;100011.78;;;5.60;100.00
25722;BME280;13578;53.450;15.496;2023-04-07T14:07:04;100010.81;;;5.61;100.00
25722;BME280;13578;53.450;15.496;2023-04-07T14:10:04;100014.47;;;5.74;100.00
25722;BME280;13578;53.450;15.496;2023-04-07T14:13:05;100018.31;;;5.84;100.00
25722;BME280;13578;53.450;15.496;2023-04-07T14:16:06;100014.22;;;5.92;100.00
25722;BME280;13578;53.450;15.496;2023-04-07T14:19:07;100004.75;;;5.97;100.00
25722;BME280;13578;53.450;15.496;2023-04-07T14:22:08;100008.47;;;5.96;100.00
25722;BME280;13578;53.450;15.496;2023-04-07T14:25:09;100015.00;;;5.94;100.00
25722;BME280;13578;53.450;15.496;2023-04-07T14:28:10;100001.97;;;5.99;100.00
25722;BME280;13578;53.450;15.496;2023-04-07T14:31:12;100015.16;;;6.05;100.00
25722;BME280;13578;53.450;15.496;2023-04-07T14:34:14;100009.53;;;6.21;100.00
25722;BME280;13578;53.450;15.496;2023-04-07T14:37:15;100011.06;;;5.98;100.00
25722;BME280;13578;53.450;15.496;2023-04-07T14:40:17;100014.97;;;6.08;100.00
25722;BME280;13578;53.450;15.496;2023-04-07T14:43:18;100001.88;;;6.13;100.00
25722;BME280;13578;53.450;15.496;2023-04-07T14:46:18;99999.41;;;6.23;100.00
25722;BME280;13578;53.450;15.496;2023-04-07T14:49:19;100013.34;;;6.18;100.00
25722;BME280;13578;53.450;15.496;2023-04-07T14:52:20;100019.94;;;6.01;100.00
25722;BME280;13578;53.450;15.496;2023-04-07T14:55:23;100015.97;;;5.93;100.00
25722;BME280;13578;53.450;15.496;2023-04-07T14:58:24;100014.22;;;5.92;100.00
25722;BME280;13578;53.450;15.496;2023-04-07T15:01:24;100000.41;;;5.95;100.00
25722;BME280;13578;53.450;15.496;2023-04-07T15:04:25;100004.84;;;5.96;100.00
25722;BME280;13578;53.450;15.496;2023-04-07T15:07:26;100003.94;;;5.82;100.00
25722;BME280;13578;53.450;15.496;2023-04-07T15:10:26;99998.72;;;5.79;100.00
25722;BME280;13578;53.450;15.496;2023-04-07T15:13:27;99991.69;;;5.75;100.00
25722;BME280;13578;53.450;15.496;2023-04-07T15:16:27;99997.50;;;5.83;100.00
25722;BME280;13578;53.450;15.496;2023-04-07T15:19:28;99998.84;;;5.91;100.00
25722;BME280;13578;53.450;15.496;2023-04-07T15:22:29;99992.41;;;5.92;100.00
25722;BME280;13578;53.450;15.496;2023-04-07T15:25:30;99986.47;;;5.99;100.00
25722;BME280;13578;53.450;15.496;2023-04-07T15:28:30;99988.38;;;5.84;100.00
25722;BME280;13578;53.450;15.496;2023-04-07T15:31:31;99986.09;;;5.91;100.00
25722;BME280;13578;53.450;15.496;2023-04-07T15:34:32;99987.63;;;5.95;100.00
25722;BME280;13578;53.450;15.496;2023-04-07T15:37:32;99997.28;;;6.01;100.00
25722;BME280;13578;53.450;15.496;2023-04-07T15:40:37;99991.41;;;6.07;100.00
25722;BME280;13578;53.450;15.496;2023-04-07T15:43:37;99988.13;;;6.02;100.00
25722;BME280;13578;53.450;15.496;2023-04-07T15:46:38;99986.09;;;6.06;100.00
25722;BME280;13578;53.450;15.496;2023-04-07T15:49:39;99985.09;;;5.92;100.00
25722;BME280;13578;53.450;15.496;2023-04-07T15:52:40;99988.72;;;5.93;100.00
25722;BME280;13578;53.450;15.496;2023-04-07T15:55:41;99989.16;;;5.86;100.00
25722;BME280;13578;53.450;15.496;2023-04-07T15:58:43;99991.44;;;5.93;100.00
25722;BME280;13578;53.450;15.496;2023-04-07T16:01:45;99995.97;;;5.79;100.00
25722;BME280;13578;53.450;15.496;2023-04-07T16:04:45;99988.72;;;5.65;100.00